sensor_id;sensor_type;location;lat;lon;timestamp;pressure;altitude;pressure_sealevel;temperature;humidity
24558;BME280;12726;49.148;8.582;2023-03-14T00:01:10;98626.88;;;11.79;81.75
24558;BME280;12726;49.148;8.582;2023-03-14T00:03:57;98619.56;;;11.80;81.36
24558;BME280;12726;49.148;8.582;2023-03-14T00:06:43;98620.41;;;11.85;81.50
24558;BME280;12726;49.148;8.582;2023-03-14T00:09:32;98620.66;;;11.84;81.13
24558;BME280;12726;49.148;8.582;2023-03-14T00:12:17;98620.94;;;11.82;81.13
24558;BME280;12726;49.148;8.582;2023-03-14T00:15:06;98618.78;;;11.89;80.91
24558;BME280;12726;49.148;8.582;2023-03-14T00:17:52;98617.97;;;11.89;81.16
24558;BME280;12726;49.148;8.582;2023-03-14T00:20:43;98615.03;;;11.85;81.92
24558;BME280;12726;49.148;8.582;2023-03-14T00:23:29;98609.34;;;11.87;81.63
24558;BME280;12726;49.148;8.582;2023-03-14T00:26:17;98613.97;;;11.91;81.24
24558;BME280;12726;49.148;8.582;2023-03-14T00:29:03;98605.31;;;11.94;81.23
24558;BME280;12726;49.148;8.582;2023-03-14T00:31:50;98613.16;;;11.96;81.69
24558;BME280;12726;49.148;8.582;2023-03-14T00:34:35;98618.78;;;11.89;82.03
24558;BME280;12726;49.148;8.582;2023-03-14T00:37:20;98615.03;;;11.95;81.80
24558;BME280;12726;49.148;8.582;2023-03-14T00:40:08;98615.28;;;11.94;82.11
24558;BME280;12726;49.148;8.582;2023-03-14T00:42:55;98609.66;;;11.95;81.65
24558;BME280;12726;49.148;8.582;2023-03-14T00:45:40;98619.91;;;11.98;82.15
24558;BME280;12726;49.148;8.582;2023-03-14T00:48:25;98623.16;;;12.00;81.73
24558;BME280;12726;49.148;8.582;2023-03-14T00:51:10;98613.44;;;11.99;81.86
24558;BME280;12726;49.148;8.582;2023-03-14T00:53:57;98631.28;;;12.05;81.76
24558;BME280;12726;49.148;8.582;2023-03-14T00:56:44;98634.75;;;12.01;82.32
24558;BME280;12726;49.148;8.582;2023-03-14T00:59:31;98646.34;;;12.01;82.24
24558;BME280;12726;49.148;8.582;2023-03-14T01:02:16;98653.34;;;12.02;81.74
24558;BME280;12726;49.148;8.582;2023-03-14T01:05:01;98664.72;;;12.09;81.49
24558;BME280;12726;49.148;8.582;2023-03-14T01:07:47;98654.22;;;12.13;81.45
24558;BME280;12726;49.148;8.582;2023-03-14T01:10:32;98663.94;;;12.14;82.04
24558;BME280;12726;49.148;8.582;2023-03-14T01:13:17;98645.81;;;12.09;82.25
24558;BME280;12726;49.148;8.582;2023-03-14T01:16:06;98633.97;;;12.10;82.37
24558;BME280;12726;49.148;8.582;2023-03-14T01:18:52;98602.16;;;12.07;82.18
24558;BME280;12726;49.148;8.582;2023-03-14T01:21:38;98611.56;;;12.00;83.07
24558;BME280;12726;49.148;8.582;2023-03-14T01:24:23;98600.50;;;12.01;83.13
24558;BME280;12726;49.148;8.582;2023-03-14T01:27:09;98619.09;;;11.98;83.34
24558;BME280;12726;49.148;8.582;2023-03-14T01:29:56;98621.50;;;11.94;83.75
24558;BME280;12726;49.148;8.582;2023-03-14T01:32:43;98611.00;;;11.93;83.42
24558;BME280;12726;49.148;8.582;2023-03-14T01:35:28;98605.56;;;11.88;84.19
24558;BME280;12726;49.148;8.582;2023-03-14T01:38:14;98597.78;;;11.86;84.09
24558;BME280;12726;49.148;8.582;2023-03-14T01:40:59;98608.50;;;11.81;85.20
24558;BME280;12726;49.148;8.582;2023-03-14T01:43:45;98596.88;;;11.70;84.88
24558;BME280;12726;49.148;8.582;2023-03-14T01:46:35;98592.00;;;11.72;85.31
24558;BME280;12726;49.148;8.582;2023-03-14T01:49:26;98572.03;;;11.63;85.22
24558;BME280;12726;49.148;8.582;2023-03-14T01:52:16;98555.56;;;11.60;85.50
24558;BME280;12726;49.148;8.582;2023-03-14T01:55:06;98562.84;;;11.54;86.03
24558;BME280;12726;49.148;8.582;2023-03-14T01:57:54;98553.09;;;11.48;87.35
24558;BME280;12726;49.148;8.582;2023-03-14T02:00:41;98555.22;;;11.41;89.31
24558;BME280;12726;49.148;8.582;2023-03-14T02:03:30;98544.97;;;11.33;91.38
24558;BME280;12726;49.148;8.582;2023-03-14T02:06:24;98538.75;;;11.27;92.21
24558;BME280;12726;49.148;8.582;2023-03-14T02:09:10;98538.97;;;11.21;92.35
24558;BME280;12726;49.148;8.582;2023-03-14T02:11:55;98533.03;;;11.19;92.37
24558;BME280;12726;49.148;8.582;2023-03-14T02:14:41;98540.03;;;11.15;92.89
24558;BME280;12726;49.148;8.582;2023-03-14T02:17:31;98544.31;;;11.11;93.28
24558;BME280;12726;49.148;8.582;2023-03-14T02:20:28;98541.88;;;11.09;92.81
24558;BME280;12726;49.148;8.582;2023-03-14T02:23:20;98549.66;;;11.06;93.33
24558;BME280;12726;49.148;8.582;2023-03-14T02:26:12;98526.50;;;11.05;92.84
24558;BME280;12726;49.148;8.582;2023-03-14T02:29:00;98519.22;;;11.05;92.45
24558;BME280;12726;49.148;8.582;2023-03-14T02:31:46;98509.25;;;11.01;92.71
24558;BME280;12726;49.148;8.582;2023-03-14T02:34:31;98490.66;;;10.99;92.55
24558;BME280;12726;49.148;8.582;2023-03-14T02:37:19;98501.44;;;10.99;91.83
24558;BME280;12726;49.148;8.582;2023-03-14T02:40:07;98501.44;;;10.99;91.26
24558;BME280;12726;49.148;8.582;2023-03-14T02:42:52;98508.69;;;10.98;90.89
24558;BME280;12726;49.148;8.582;2023-03-14T02:45:41;98508.16;;;11.02;90.04
24558;BME280;12726;49.148;8.582;2023-03-14T02:48:30;98499.31;;;11.01;89.56
24558;BME280;12726;49.148;8.582;2023-03-14T02:51:17;98488.25;;;11.03;89.35
24558;BME280;12726;49.148;8.582;2023-03-14T02:54:02;98508.72;;;11.04;89.00
24558;BME280;12726;49.148;8.582;2023-03-14T02:56:48;98488.78;;;10.99;89.43
24558;BME280;12726;49.148;8.582;2023-03-14T02:59:33;98489.84;;;10.98;89.38
24558;BME280;12726;49.148;8.582;2023-03-14T03:02:20;98499.25;;;10.96;89.29
24558;BME280;12726;49.148;8.582;2023-03-14T03:05:06;98489.84;;;10.98;88.33
24558;BME280;12726;49.148;8.582;2023-03-14T03:07:51;98478.53;;;11.02;88.04
24558;BME280;12726;49.148;8.582;2023-03-14T03:10:37;98466.44;;;10.99;87.76
24558;BME280;12726;49.148;8.582;2023-03-14T03:13:22;98472.31;;;10.96;87.66
24558;BME280;12726;49.148;8.582;2023-03-14T03:16:08;98471.25;;;10.97;87.13
24558;BME280;12726;49.148;8.582;2023-03-14T03:18:55;98456.72;;;10.93;87.33
24558;BME280;12726;49.148;8.582;2023-03-14T03:21:40;98454.28;;;10.91;86.93
24558;BME280;12726;49.148;8.582;2023-03-14T03:24:26;98456.97;;;10.91;87.04
24558;BME280;12726;49.148;8.582;2023-03-14T03:27:12;98455.84;;;10.87;86.17
24558;BME280;12726;49.148;8.582;2023-03-14T03:29:57;98444.56;;;10.90;85.64
24558;BME280;12726;49.148;8.582;2023-03-14T03:32:42;98439.19;;;10.90;85.37
24558;BME280;12726;49.148;8.582;2023-03-14T03:35:29;98428.69;;;10.89;85.51
24558;BME280;12726;49.148;8.582;2023-03-14T03:38:15;98428.41;;;10.85;85.16
24558;BME280;12726;49.148;8.582;2023-03-14T03:41:02;98418.72;;;10.89;84.23
24558;BME280;12726;49.148;8.582;2023-03-14T03:43:48;98427.63;;;10.90;84.00
24558;BME280;12726;49.148;8.582;2023-03-14T03:46:33;98425.47;;;10.92;83.86
24558;BME280;12726;49.148;8.582;2023-03-14T03:49:19;98413.09;;;10.91;83.05
24558;BME280;12726;49.148;8.582;2023-03-14T03:52:05;98407.16;;;10.89;83.33
24558;BME280;12726;49.148;8.582;2023-03-14T03:54:51;98414.97;;;10.90;82.54
24558;BME280;12726;49.148;8.582;2023-03-14T03:57:36;98419.03;;;10.98;81.50
24558;BME280;12726;49.148;8.582;2023-03-14T04:00:22;98412.59;;;10.99;80.52
24558;BME280;12726;49.148;8.582;2023-03-14T04:03:07;98408.81;;;11.00;80.08
24558;BME280;12726;49.148;8.582;2023-03-14T04:05:58;98413.13;;;11.01;79.43
24558;BME280;12726;49.148;8.582;2023-03-14T04:08:45;98405.88;;;11.07;79.12
24558;BME280;12726;49.148;8.582;2023-03-14T04:11:32;98411.78;;;11.04;78.94
24558;BME280;12726;49.148;8.582;2023-03-14T04:14:17;98397.53;;;11.08;77.89
24558;BME280;12726;49.148;8.582;2023-03-14T04:17:03;98406.41;;;11.09;78.03
24558;BME280;12726;49.148;8.582;2023-03-14T04:19:48;98377.31;;;11.06;77.35
24558;BME280;12726;49.148;8.582;2023-03-14T04:22:35;98387.53;;;11.04;77.68
24558;BME280;12726;49.148;8.582;2023-03-14T04:25:21;98384.59;;;11.00;77.04
24558;BME280;12726;49.148;8.582;2023-03-14T04:28:07;98396.97;;;11.01;76.70
24558;BME280;12726;49.148;8.582;2023-03-14T04:30:52;98382.97;;;10.99;76.53
24558;BME280;12726;49.148;8.582;2023-03-14T04:33:37;98386.16;;;10.96;76.05
24558;BME280;12726;49.148;8.582;2023-03-14T04:36:22;98373.00;;;10.99;75.49
24558;BME280;12726;49.148;8.582;2023-03-14T04:39:08;98372.72;;;10.96;75.65
24558;BME280;12726;49.148;8.582;2023-03-14T04:41:54;98367.59;;;10.94;75.55
24558;BME280;12726;49.148;8.582;2023-03-14T04:44:40;98371.88;;;10.90;75.94
24558;BME280;12726;49.148;8.582;2023-03-14T04:47:27;98353.31;;;10.89;75.05
24558;BME280;12726;49.148;8.582;2023-03-14T04:50:12;98356.25;;;10.87;75.45
24558;BME280;12726;49.148;8.582;2023-03-14T04:52:57;98350.34;;;10.85;75.70
24558;BME280;12726;49.148;8.582;2023-03-14T04:55:47;98351.13;;;10.81;75.91
24558;BME280;12726;49.148;8.582;2023-03-14T04:58:34;98353.81;;;10.81;75.56
24558;BME280;12726;49.148;8.582;2023-03-14T05:01:19;98337.66;;;10.81;75.72
24558;BME280;12726;49.148;8.582;2023-03-14T05:04:04;98338.22;;;10.83;76.15
24558;BME280;12726;49.148;8.582;2023-03-14T05:06:50;98333.94;;;10.87;75.41
24558;BME280;12726;49.148;8.582;2023-03-14T05:09:35;98332.56;;;10.89;75.63
24558;BME280;12726;49.148;8.582;2023-03-14T05:12:21;98350.09;;;10.92;75.62
24558;BME280;12726;49.148;8.582;2023-03-14T05:15:08;98338.53;;;10.96;75.39
24558;BME280;12726;49.148;8.582;2023-03-14T05:17:57;98349.03;;;10.98;75.48
24558;BME280;12726;49.148;8.582;2023-03-14T05:20:42;98355.22;;;10.93;75.81
24558;BME280;12726;49.148;8.582;2023-03-14T05:23:27;98344.19;;;11.00;75.21
24558;BME280;12726;49.148;8.582;2023-03-14T05:26:13;98353.91;;;11.01;75.99
24558;BME280;12726;49.148;8.582;2023-03-14T05:29:00;98346.09;;;11.05;74.97
24558;BME280;12726;49.148;8.582;2023-03-14T05:31:47;98350.66;;;11.04;75.35
24558;BME280;12726;49.148;8.582;2023-03-14T05:34:33;98346.91;;;11.05;75.08
24558;BME280;12726;49.148;8.582;2023-03-14T05:37:18;98344.75;;;11.07;75.11
24558;BME280;12726;49.148;8.582;2023-03-14T05:40:04;98327.53;;;11.08;75.08
24558;BME280;12726;49.148;8.582;2023-03-14T05:42:50;98336.69;;;11.12;75.08
24558;BME280;12726;49.148;8.582;2023-03-14T05:45:36;98345.84;;;11.11;74.76
24558;BME280;12726;49.148;8.582;2023-03-14T05:48:23;98331.28;;;11.12;74.88
24558;BME280;12726;49.148;8.582;2023-03-14T05:51:08;98332.38;;;11.06;75.32
24558;BME280;12726;49.148;8.582;2023-03-14T05:53:54;98316.47;;;11.05;75.52
24558;BME280;12726;49.148;8.582;2023-03-14T05:56:39;98320.78;;;11.06;75.20
24558;BME280;12726;49.148;8.582;2023-03-14T05:59:24;98313.50;;;11.01;75.19
24558;BME280;12726;49.148;8.582;2023-03-14T06:02:10;98313.75;;;10.94;75.82
24558;BME280;12726;49.148;8.582;2023-03-14T06:04:56;98310.22;;;10.89;75.57
24558;BME280;12726;49.148;8.582;2023-03-14T06:07:42;98294.88;;;10.89;75.30
24558;BME280;12726;49.148;8.582;2023-03-14T06:10:27;98324.00;;;10.97;75.44
24558;BME280;12726;49.148;8.582;2023-03-14T06:13:13;98308.91;;;10.96;75.03
24558;BME280;12726;49.148;8.582;2023-03-14T06:15:59;98309.72;;;10.97;75.25
24558;BME280;12726;49.148;8.582;2023-03-14T06:18:44;98308.09;;;10.96;75.30
24558;BME280;12726;49.148;8.582;2023-03-14T06:21:34;98311.88;;;11.00;75.37
24558;BME280;12726;49.148;8.582;2023-03-14T06:24:20;98321.03;;;11.04;75.32
24558;BME280;12726;49.148;8.582;2023-03-14T06:27:05;98316.75;;;11.13;74.39
24558;BME280;12726;49.148;8.582;2023-03-14T06:29:53;98310.84;;;11.21;73.98
24558;BME280;12726;49.148;8.582;2023-03-14T06:32:38;98311.66;;;11.27;73.86
24558;BME280;12726;49.148;8.582;2023-03-14T06:35:24;98315.97;;;11.33;73.80
24558;BME280;12726;49.148;8.582;2023-03-14T06:38:10;98325.13;;;11.22;74.19
24558;BME280;12726;49.148;8.582;2023-03-14T06:40:56;98316.22;;;11.16;74.14
24558;BME280;12726;49.148;8.582;2023-03-14T06:43:42;98328.88;;;11.11;74.49
24558;BME280;12726;49.148;8.582;2023-03-14T06:46:27;98330.22;;;11.08;74.28
24558;BME280;12726;49.148;8.582;2023-03-14T06:49:12;98331.56;;;11.06;75.04
24558;BME280;12726;49.148;8.582;2023-03-14T06:51:57;98327.78;;;11.07;74.77
24558;BME280;12726;49.148;8.582;2023-03-14T06:54:44;98327.53;;;11.08;75.22
24558;BME280;12726;49.148;8.582;2023-03-14T06:57:30;98331.81;;;11.04;75.27
24558;BME280;12726;49.148;8.582;2023-03-14T07:00:16;98337.47;;;11.03;75.42
24558;BME280;12726;49.148;8.582;2023-03-14T07:03:01;98331.56;;;11.06;75.94
24558;BME280;12726;49.148;8.582;2023-03-14T07:05:47;98339.63;;;11.01;75.89
24558;BME280;12726;49.148;8.582;2023-03-14T07:08:32;98336.66;;;11.02;75.44
24558;BME280;12726;49.148;8.582;2023-03-14T07:11:19;98338.25;;;11.03;75.90
24558;BME280;12726;49.148;8.582;2023-03-14T07:14:04;98342.31;;;11.01;75.38
24558;BME280;12726;49.148;8.582;2023-03-14T07:16:50;98350.66;;;11.09;75.16
24558;BME280;12726;49.148;8.582;2023-03-14T07:19:35;98346.38;;;11.13;75.55
24558;BME280;12726;49.148;8.582;2023-03-14T07:22:21;98340.19;;;11.18;75.52
24558;BME280;12726;49.148;8.582;2023-03-14T07:25:07;98352.31;;;11.20;75.29
24558;BME280;12726;49.148;8.582;2023-03-14T07:27:55;98352.88;;;11.22;75.38
24558;BME280;12726;49.148;8.582;2023-03-14T07:30:40;98349.13;;;11.28;75.08
24558;BME280;12726;49.148;8.582;2023-03-14T07:33:28;98356.13;;;11.29;74.97
24558;BME280;12726;49.148;8.582;2023-03-14T07:36:13;98362.03;;;11.26;74.62
24558;BME280;12726;49.148;8.582;2023-03-14T07:38:58;98361.50;;;11.29;75.49
24558;BME280;12726;49.148;8.582;2023-03-14T07:41:48;98354.50;;;11.33;75.40
24558;BME280;12726;49.148;8.582;2023-03-14T07:44:34;98356.13;;;11.34;75.29
24558;BME280;12726;49.148;8.582;2023-03-14T07:47:20;98359.63;;;11.45;74.90
24558;BME280;12726;49.148;8.582;2023-03-14T07:50:06;98355.06;;;11.61;73.34
24558;BME280;12726;49.148;8.582;2023-03-14T07:52:52;98354.81;;;11.83;73.10
24558;BME280;12726;49.148;8.582;2023-03-14T07:55:39;98349.91;;;12.15;71.65
24558;BME280;12726;49.148;8.582;2023-03-14T07:58:24;98367.13;;;12.44;70.08
24558;BME280;12726;49.148;8.582;2023-03-14T08:01:11;98367.34;;;12.58;69.50
24558;BME280;12726;49.148;8.582;2023-03-14T08:03:56;98355.19;;;12.66;69.19
24558;BME280;12726;49.148;8.582;2023-03-14T08:06:42;98365.63;;;12.87;68.53
24558;BME280;12726;49.148;8.582;2023-03-14T08:09:27;98355.22;;;12.61;67.76
24558;BME280;12726;49.148;8.582;2023-03-14T08:12:13;98365.25;;;12.45;70.90
24558;BME280;12726;49.148;8.582;2023-03-14T08:14:59;98362.31;;;12.31;70.84
24558;BME280;12726;49.148;8.582;2023-03-14T08:17:46;98359.38;;;12.28;70.59
24558;BME280;12726;49.148;8.582;2023-03-14T08:20:35;98357.94;;;12.45;70.28
24558;BME280;12726;49.148;8.582;2023-03-14T08:23:21;98361.22;;;12.37;69.78
24558;BME280;12726;49.148;8.582;2023-03-14T08:26:07;98369.28;;;12.52;70.08
24558;BME280;12726;49.148;8.582;2023-03-14T08:28:52;98375.16;;;12.65;71.49
24558;BME280;12726;49.148;8.582;2023-03-14T08:31:37;98369.03;;;12.49;72.32
24558;BME280;12726;49.148;8.582;2023-03-14T08:34:24;98379.28;;;12.42;72.31
24558;BME280;12726;49.148;8.582;2023-03-14T08:37:09;98373.34;;;12.40;72.23
24558;BME280;12726;49.148;8.582;2023-03-14T08:39:55;98355.00;;;12.42;71.78
24558;BME280;12726;49.148;8.582;2023-03-14T08:42:40;98373.91;;;12.42;72.16
24558;BME280;12726;49.148;8.582;2023-03-14T08:45:26;98365.75;;;12.52;73.17
24558;BME280;12726;49.148;8.582;2023-03-14T08:48:11;98372.31;;;12.36;74.09
24558;BME280;12726;49.148;8.582;2023-03-14T08:51:04;98382.03;;;12.01;75.64
24558;BME280;12726;49.148;8.582;2023-03-14T08:53:50;98362.09;;;11.82;76.79
24558;BME280;12726;49.148;8.582;2023-03-14T08:56:35;98391.75;;;11.72;78.42
24558;BME280;12726;49.148;8.582;2023-03-14T08:59:21;98388.81;;;11.84;78.72
24558;BME280;12726;49.148;8.582;2023-03-14T09:02:08;98387.44;;;11.76;78.63
24558;BME280;12726;49.148;8.582;2023-03-14T09:04:54;98392.28;;;11.64;77.81
24558;BME280;12726;49.148;8.582;2023-03-14T09:07:41;98385.78;;;11.60;78.18
24558;BME280;12726;49.148;8.582;2023-03-14T09:10:26;98395.50;;;11.61;77.31
24558;BME280;12726;49.148;8.582;2023-03-14T09:13:12;98405.44;;;11.65;76.58
24558;BME280;12726;49.148;8.582;2023-03-14T09:15:57;98396.06;;;11.83;76.44
24558;BME280;12726;49.148;8.582;2023-03-14T09:18:42;98403.63;;;11.81;76.99
24558;BME280;12726;49.148;8.582;2023-03-14T09:21:28;98409.28;;;11.74;78.01
24558;BME280;12726;49.148;8.582;2023-03-14T09:24:15;98413.31;;;11.82;78.36
24558;BME280;12726;49.148;8.582;2023-03-14T09:27:00;98404.19;;;11.93;76.24
24558;BME280;12726;49.148;8.582;2023-03-14T09:29:45;98406.31;;;11.96;76.10
24558;BME280;12726;49.148;8.582;2023-03-14T09:32:31;98384.72;;;12.01;75.48
24558;BME280;12726;49.148;8.582;2023-03-14T09:35:16;98408.75;;;11.98;75.23
24558;BME280;12726;49.148;8.582;2023-03-14T09:38:02;98408.47;;;11.89;74.34
24558;BME280;12726;49.148;8.582;2023-03-14T09:40:49;98402.81;;;12.06;74.44
24558;BME280;12726;49.148;8.582;2023-03-14T09:43:35;98410.84;;;12.46;73.17
24558;BME280;12726;49.148;8.582;2023-03-14T09:46:21;98419.97;;;12.66;72.81
24558;BME280;12726;49.148;8.582;2023-03-14T09:49:11;98409.69;;;12.73;72.26
24558;BME280;12726;49.148;8.582;2023-03-14T09:51:58;98408.38;;;12.60;72.61
24558;BME280;12726;49.148;8.582;2023-03-14T09:54:47;98445.91;;;12.51;71.47
24558;BME280;12726;49.148;8.582;2023-03-14T09:57:35;98423.03;;;12.34;71.89
24558;BME280;12726;49.148;8.582;2023-03-14T10:00:23;98435.97;;;12.16;74.04
24558;BME280;12726;49.148;8.582;2023-03-14T10:03:26;98445.44;;;12.19;74.00
24558;BME280;12726;49.148;8.582;2023-03-14T10:06:14;98438.94;;;12.25;74.45
24558;BME280;12726;49.148;8.582;2023-03-14T10:09:00;98429.78;;;12.16;73.92
24558;BME280;12726;49.148;8.582;2023-03-14T10:11:46;98450.53;;;12.10;75.48
24558;BME280;12726;49.148;8.582;2023-03-14T10:14:35;98446.50;;;12.13;76.04
24558;BME280;12726;49.148;8.582;2023-03-14T10:17:20;98446.25;;;12.14;76.40
24558;BME280;12726;49.148;8.582;2023-03-14T10:20:14;98441.91;;;12.03;76.41
24558;BME280;12726;49.148;8.582;2023-03-14T10:23:24;98454.88;;;11.86;77.57
24558;BME280;12726;49.148;8.582;2023-03-14T10:26:13;98463.41;;;11.68;79.57
24558;BME280;12726;49.148;8.582;2023-03-14T10:29:02;98474.72;;;11.50;81.88
24558;BME280;12726;49.148;8.582;2023-03-14T10:31:55;98452.59;;;11.43;82.62
24558;BME280;12726;49.148;8.582;2023-03-14T10:34:42;98461.50;;;11.43;83.18
24558;BME280;12726;49.148;8.582;2023-03-14T10:37:28;98464.13;;;11.33;85.99
24558;BME280;12726;49.148;8.582;2023-03-14T10:40:17;98456.84;;;11.28;86.46
24558;BME280;12726;49.148;8.582;2023-03-14T10:43:04;98456.28;;;11.21;87.86
24558;BME280;12726;49.148;8.582;2023-03-14T10:45:55;98455.19;;;11.17;88.54
24558;BME280;12726;49.148;8.582;2023-03-14T10:48:43;98453.28;;;11.13;89.59
24558;BME280;12726;49.148;8.582;2023-03-14T10:51:30;98466.47;;;11.09;91.66
24558;BME280;12726;49.148;8.582;2023-03-14T10:54:21;98464.31;;;11.06;91.38
24558;BME280;12726;49.148;8.582;2023-03-14T10:57:07;98473.69;;;10.98;92.80
24558;BME280;12726;49.148;8.582;2023-03-14T10:59:54;98465.84;;;10.92;93.16
24558;BME280;12726;49.148;8.582;2023-03-14T11:02:49;98457.78;;;10.87;93.66
24558;BME280;12726;49.148;8.582;2023-03-14T11:05:46;98466.34;;;10.79;95.61
24558;BME280;12726;49.148;8.582;2023-03-14T11:08:38;98462.47;;;10.65;96.38
24558;BME280;12726;49.148;8.582;2023-03-14T11:11:29;98454.91;;;10.56;97.12
24558;BME280;12726;49.148;8.582;2023-03-14T11:14:23;98479.09;;;10.51;99.19
24558;BME280;12726;49.148;8.582;2023-03-14T11:17:15;98486.16;;;10.31;100.00
24558;BME280;12726;49.148;8.582;2023-03-14T11:20:22;98488.34;;;10.34;100.00
24558;BME280;12726;49.148;8.582;2023-03-14T11:23:17;98488.38;;;10.39;100.00
24558;BME280;12726;49.148;8.582;2023-03-14T11:26:14;98493.63;;;10.55;100.00
24558;BME280;12726;49.148;8.582;2023-03-14T11:29:09;98488.28;;;10.60;100.00
24558;BME280;12726;49.148;8.582;2023-03-14T11:31:59;98496.22;;;10.45;100.00
24558;BME280;12726;49.148;8.582;2023-03-14T11:34:51;98510.50;;;10.46;100.00
24558;BME280;12726;49.148;8.582;2023-03-14T11:37:42;98508.22;;;10.28;100.00
24558;BME280;12726;49.148;8.582;2023-03-14T11:40:33;98520.06;;;10.32;100.00
24558;BME280;12726;49.148;8.582;2023-03-14T11:43:25;98524.59;;;10.26;100.00
24558;BME280;12726;49.148;8.582;2023-03-14T11:46:17;98529.38;;;10.19;100.00
24558;BME280;12726;49.148;8.582;2023-03-14T11:49:06;98558.66;;;10.15;100.00
24558;BME280;12726;49.148;8.582;2023-03-14T11:51:59;98566.34;;;10.07;100.00
24558;BME280;12726;49.148;8.582;2023-03-14T11:54:49;98589.16;;;10.04;98.75
24558;BME280;12726;49.148;8.582;2023-03-14T11:57:39;98619.09;;;10.13;96.03
24558;BME280;12726;49.148;8.582;2023-03-14T12:00:25;98625.63;;;9.95;92.26
24558;BME280;12726;49.148;8.582;2023-03-14T12:03:15;98633.06;;;9.88;89.78
24558;BME280;12726;49.148;8.582;2023-03-14T12:06:09;98654.22;;;9.79;88.45
24558;BME280;12726;49.148;8.582;2023-03-14T12:08:59;98681.28;;;9.73;88.24
24558;BME280;12726;49.148;8.582;2023-03-14T12:11:48;98685.13;;;9.60;89.44
24558;BME280;12726;49.148;8.582;2023-03-14T12:14:44;98702.34;;;9.42;88.33
24558;BME280;12726;49.148;8.582;2023-03-14T12:17:35;98713.72;;;9.33;88.04
24558;BME280;12726;49.148;8.582;2023-03-14T12:20:22;98734.16;;;9.17;85.91
24558;BME280;12726;49.148;8.582;2023-03-14T12:23:11;98740.59;;;9.16;87.33
24558;BME280;12726;49.148;8.582;2023-03-14T12:26:15;98761.59;;;9.19;85.38
24558;BME280;12726;49.148;8.582;2023-03-14T12:29:13;98748.66;;;9.16;84.45
24558;BME280;12726;49.148;8.582;2023-03-14T12:32:09;98774.69;;;9.32;82.00
24558;BME280;12726;49.148;8.582;2023-03-14T12:35:35;98775.56;;;9.38;81.11
24558;BME280;12726;49.148;8.582;2023-03-14T12:38:25;98778.13;;;9.45;78.26
24558;BME280;12726;49.148;8.582;2023-03-14T12:41:16;98790.81;;;9.49;77.72
24558;BME280;12726;49.148;8.582;2023-03-14T12:50:45;98818.81;;;9.53;75.10
24558;BME280;12726;49.148;8.582;2023-03-14T12:53:45;98824.41;;;9.68;75.24
24558;BME280;12726;49.148;8.582;2023-03-14T12:56:54;98826.13;;;9.74;73.89
24558;BME280;12726;49.148;8.582;2023-03-14T12:59:46;98837.91;;;9.90;70.96
24558;BME280;12726;49.148;8.582;2023-03-14T13:02:38;98821.41;;;10.37;67.91
24558;BME280;12726;49.148;8.582;2023-03-14T13:05:26;98845.31;;;10.77;64.95
24558;BME280;12726;49.148;8.582;2023-03-14T13:08:13;98849.53;;;11.48;62.20
24558;BME280;12726;49.148;8.582;2023-03-14T13:10:58;98863.50;;;11.45;59.27
24558;BME280;12726;49.148;8.582;2023-03-14T13:13:46;98874.97;;;11.57;58.12
24558;BME280;12726;49.148;8.582;2023-03-14T13:16:35;98887.06;;;11.55;55.98
24558;BME280;12726;49.148;8.582;2023-03-14T13:19:24;98897.03;;;11.27;52.90
24558;BME280;12726;49.148;8.582;2023-03-14T13:22:16;98910.34;;;10.90;52.99
24558;BME280;12726;49.148;8.582;2023-03-14T13:25:07;98917.78;;;10.83;51.61
24558;BME280;12726;49.148;8.582;2023-03-14T13:27:53;98929.31;;;10.57;51.01
24558;BME280;12726;49.148;8.582;2023-03-14T13:30:40;98940.97;;;10.46;51.35
24558;BME280;12726;49.148;8.582;2023-03-14T13:33:26;98951.44;;;10.26;51.65
24558;BME280;12726;49.148;8.582;2023-03-14T13:36:11;98941.94;;;10.40;52.43
24558;BME280;12726;49.148;8.582;2023-03-14T13:38:58;98959.50;;;10.26;50.26
24558;BME280;12726;49.148;8.582;2023-03-14T13:41:46;98960.09;;;10.16;50.88
24558;BME280;12726;49.148;8.582;2023-03-14T13:44:34;98958.59;;;10.20;52.65
24558;BME280;12726;49.148;8.582;2023-03-14T13:47:22;98965.91;;;10.08;52.23
24558;BME280;12726;49.148;8.582;2023-03-14T13:50:15;98980.06;;;10.03;52.51
24558;BME280;12726;49.148;8.582;2023-03-14T13:53:00;98982.28;;;10.06;52.16
24558;BME280;12726;49.148;8.582;2023-03-14T13:55:46;98992.31;;;10.11;52.84
24558;BME280;12726;49.148;8.582;2023-03-14T13:58:37;98991.25;;;10.12;53.63
24558;BME280;12726;49.148;8.582;2023-03-14T14:01:24;98996.16;;;10.15;51.71
24558;BME280;12726;49.148;8.582;2023-03-14T14:04:15;99025.47;;;10.16;52.65
24558;BME280;12726;49.148;8.582;2023-03-14T14:07:07;99022.19;;;10.26;52.47
24558;BME280;12726;49.148;8.582;2023-03-14T14:09:56;99036.69;;;10.42;52.28
24558;BME280;12726;49.148;8.582;2023-03-14T14:12:46;99037.69;;;10.36;51.80
24558;BME280;12726;49.148;8.582;2023-03-14T14:15:38;99055.22;;;10.10;49.44
24558;BME280;12726;49.148;8.582;2023-03-14T14:18:26;99051.69;;;10.21;51.01
24558;BME280;12726;49.148;8.582;2023-03-14T14:21:13;99072.38;;;10.09;48.80
24558;BME280;12726;49.148;8.582;2023-03-14T14:23:58;99092.34;;;10.25;49.95
24558;BME280;12726;49.148;8.582;2023-03-14T14:26:47;99094.72;;;10.21;46.63
24558;BME280;12726;49.148;8.582;2023-03-14T14:29:33;99091.09;;;10.15;46.64
24558;BME280;12726;49.148;8.582;2023-03-14T14:32:20;99113.06;;;10.12;47.32
24558;BME280;12726;49.148;8.582;2023-03-14T14:35:08;99114.00;;;10.18;46.09
24558;BME280;12726;49.148;8.582;2023-03-14T14:37:55;99118.78;;;10.16;46.27
24558;BME280;12726;49.148;8.582;2023-03-14T14:40:44;99118.69;;;10.23;47.32
24558;BME280;12726;49.148;8.582;2023-03-14T14:43:34;99130.13;;;10.30;47.62
24558;BME280;12726;49.148;8.582;2023-03-14T14:46:21;99124.00;;;10.34;46.21
24558;BME280;12726;49.148;8.582;2023-03-14T14:49:10;99147.03;;;10.30;46.42
24558;BME280;12726;49.148;8.582;2023-03-14T14:52:00;99140.88;;;10.30;47.37
24558;BME280;12726;49.148;8.582;2023-03-14T14:54:50;99160.22;;;10.43;48.02